createdAt,value
2022-11-21T00:01:22.522Z,1.47
2022-11-21T00:03:51.114Z,1.73
2022-11-21T00:06:20.968Z,1.60
2022-11-21T00:08:49.234Z,1.63
2022-11-21T00:11:17.555Z,1.80
2022-11-21T00:13:45.733Z,1.53
2022-11-21T00:16:16.054Z,1.83
2022-11-21T00:18:45.041Z,1.80
2022-11-21T00:21:15.210Z,1.80
2022-11-21T00:23:45.285Z,1.30
2022-11-21T00:26:15.164Z,1.70
2022-11-21T00:28:43.683Z,1.93
2022-11-21T00:31:20.602Z,1.87
2022-11-21T00:33:48.871Z,1.50
2022-11-21T00:36:17.159Z,1.60
2022-11-21T00:38:46.817Z,1.90
2022-11-21T00:41:15.094Z,1.77
2022-11-21T00:43:44.824Z,2.00
2022-11-21T00:46:13.149Z,1.70
2022-11-21T00:48:41.657Z,1.47
2022-11-21T00:51:10.342Z,1.43
2022-11-21T00:53:38.450Z,1.43
2022-11-21T00:56:08.362Z,1.47
2022-11-21T00:58:36.496Z,1.20
2022-11-21T01:01:07.347Z,1.10
2022-11-21T01:03:35.957Z,1.30
2022-11-21T01:06:06.366Z,1.20
2022-11-21T01:08:37.047Z,1.60
2022-11-21T01:11:08.047Z,1.63
2022-11-21T01:13:36.708Z,1.30
2022-11-21T01:16:06.795Z,1.47
2022-11-21T01:18:35.053Z,1.20
2022-11-21T01:21:04.374Z,1.50
2022-11-21T01:23:32.617Z,1.40
2022-11-21T01:26:04.375Z,1.40
2022-11-21T01:28:34.293Z,1.40
2022-11-21T01:31:07.227Z,1.43
2022-11-21T01:33:36.061Z,1.00
2022-11-21T01:36:12.332Z,1.13
2022-11-21T01:38:41.283Z,1.20
2022-11-21T01:41:10.361Z,1.30
2022-11-21T01:43:40.321Z,1.00
2022-11-21T01:46:14.377Z,1.13
2022-11-21T01:48:47.416Z,1.20
2022-11-21T01:51:22.165Z,0.90
2022-11-21T01:54:00.818Z,1.50
2022-11-21T01:56:32.220Z,1.27
2022-11-21T01:59:04.806Z,1.40
2022-11-21T02:01:35.661Z,1.30
2022-11-21T02:04:06.168Z,1.50
2022-11-21T02:06:37.483Z,1.17
2022-11-21T02:09:06.915Z,2.00
2022-11-21T02:11:39.730Z,1.03
2022-11-21T02:14:10.033Z,1.47
2022-11-21T02:16:38.330Z,1.13
2022-11-21T02:19:07.566Z,1.60
2022-11-21T02:21:44.984Z,1.10
2022-11-21T02:24:19.949Z,1.40
2022-11-21T02:26:50.162Z,1.30
2022-11-21T02:29:18.590Z,1.43
2022-11-21T02:31:46.770Z,1.47
2022-11-21T02:34:15.232Z,1.53
2022-11-21T02:36:45.657Z,1.90
2022-11-21T02:39:19.058Z,2.07
2022-11-21T02:41:55.713Z,2.27
2022-11-21T02:44:29.070Z,2.57
2022-11-21T02:46:57.726Z,2.97
2022-11-21T02:49:36.041Z,2.60
2022-11-21T02:52:04.294Z,2.83
2022-11-21T02:54:33.322Z,3.30
2022-11-21T02:57:02.892Z,3.30
2022-11-21T02:59:32.710Z,3.40
2022-11-21T03:02:01.161Z,3.00
2022-11-21T03:04:29.820Z,3.50
2022-11-21T03:06:58.678Z,3.10
